sensor_id;sensor_type;location;lat;lon;timestamp;pressure;altitude;pressure_sealevel;temperature;humidity
20043;BME280;10182;52.896;6.496;2023-06-26T00:01:34;101051.59;;;22.65;100.00
20043;BME280;10182;52.896;6.496;2023-06-26T00:06:37;101047.75;;;22.68;100.00
20043;BME280;10182;52.896;6.496;2023-06-26T00:11:47;101035.97;;;22.69;100.00
20043;BME280;10182;52.896;6.496;2023-06-26T00:16:49;101042.09;;;22.61;100.00
20043;BME280;10182;52.896;6.496;2023-06-26T00:21:53;101029.44;;;22.62;100.00
20043;BME280;10182;52.896;6.496;2023-06-26T00:26:55;101021.78;;;22.57;100.00
20043;BME280;10182;52.896;6.496;2023-06-26T00:31:57;101011.84;;;22.48;100.00
20043;BME280;10182;52.896;6.496;2023-06-26T00:37:00;101014.09;;;22.43;100.00
20043;BME280;10182;52.896;6.496;2023-06-26T00:42:03;101008.31;;;22.38;100.00
20043;BME280;10182;52.896;6.496;2023-06-26T00:47:05;101000.47;;;22.35;100.00
20043;BME280;10182;52.896;6.496;2023-06-26T00:52:09;100995.34;;;22.41;100.00
20043;BME280;10182;52.896;6.496;2023-06-26T00:57:10;100983.28;;;22.36;100.00
20043;BME280;10182;52.896;6.496;2023-06-26T01:02:12;100975.06;;;22.37;100.00
20043;BME280;10182;52.896;6.496;2023-06-26T01:07:22;100971.78;;;22.34;100.00
20043;BME280;10182;52.896;6.496;2023-06-26T01:12:24;100965.22;;;22.26;100.00
20043;BME280;10182;52.896;6.496;2023-06-26T01:17:26;100957.00;;;22.18;100.00
20043;BME280;10182;52.896;6.496;2023-06-26T01:22:37;100953.47;;;21.98;100.00
20043;BME280;10182;52.896;6.496;2023-06-26T01:27:48;100961.50;;;21.88;100.00
20043;BME280;10182;52.896;6.496;2023-06-26T01:32:50;100960.69;;;21.88;100.00
20043;BME280;10182;52.896;6.496;2023-06-26T01:37:52;100950.03;;;21.76;100.00
20043;BME280;10182;52.896;6.496;2023-06-26T01:42:56;100937.81;;;21.72;100.00
20043;BME280;10182;52.896;6.496;2023-06-26T01:48:01;100931.84;;;21.69;100.00
20043;BME280;10182;52.896;6.496;2023-06-26T01:53:09;100928.31;;;21.58;100.00
20043;BME280;10182;52.896;6.496;2023-06-26T01:58:13;100925.84;;;21.55;100.00
20043;BME280;10182;52.896;6.496;2023-06-26T02:03:17;100927.56;;;21.56;100.00
20043;BME280;10182;52.896;6.496;2023-06-26T02:08:18;100924.81;;;21.46;100.00
20043;BME280;10182;52.896;6.496;2023-06-26T02:13:21;100934.72;;;21.36;100.00
20043;BME280;10182;52.896;6.496;2023-06-26T02:18:23;100943.22;;;21.32;100.00
20043;BME280;10182;52.896;6.496;2023-06-26T02:23:25;100942.25;;;21.42;100.00
20043;BME280;10182;52.896;6.496;2023-06-26T02:28:28;100941.84;;;21.47;100.00
20043;BME280;10182;52.896;6.496;2023-06-26T02:33:31;100939.88;;;21.49;100.00
20043;BME280;10182;52.896;6.496;2023-06-26T02:38:32;100937.88;;;21.51;100.00
20043;BME280;10182;52.896;6.496;2023-06-26T02:43:35;100939.56;;;21.42;100.00
20043;BME280;10182;52.896;6.496;2023-06-26T02:48:37;100937.41;;;21.36;100.00
20043;BME280;10182;52.896;6.496;2023-06-26T02:53:39;100929.75;;;21.32;100.00
20043;BME280;10182;52.896;6.496;2023-06-26T02:58:42;100922.34;;;21.24;100.00
20043;BME280;10182;52.896;6.496;2023-06-26T03:03:43;100927.16;;;21.20;100.00
20043;BME280;10182;52.896;6.496;2023-06-26T03:08:47;100939.44;;;21.13;100.00
20043;BME280;10182;52.896;6.496;2023-06-26T03:13:50;100943.28;;;21.10;100.00
20043;BME280;10182;52.896;6.496;2023-06-26T03:18:52;100957.97;;;21.06;100.00
20043;BME280;10182;52.896;6.496;2023-06-26T03:23:54;100955.13;;;20.98;100.00
20043;BME280;10182;52.896;6.496;2023-06-26T03:28:57;100958.09;;;20.95;100.00
20043;BME280;10182;52.896;6.496;2023-06-26T03:33:58;100966.44;;;20.92;100.00
20043;BME280;10182;52.896;6.496;2023-06-26T03:39:00;100963.75;;;20.92;100.00
20043;BME280;10182;52.896;6.496;2023-06-26T03:44:03;100956.13;;;20.97;100.00
20043;BME280;10182;52.896;6.496;2023-06-26T03:49:05;100953.81;;;20.92;100.00
20043;BME280;10182;52.896;6.496;2023-06-26T03:54:06;100948.72;;;20.89;100.00
20043;BME280;10182;52.896;6.496;2023-06-26T03:59:09;100948.88;;;20.98;100.00
20043;BME280;10182;52.896;6.496;2023-06-26T04:04:11;100942.84;;;21.05;100.00
20043;BME280;10182;52.896;6.496;2023-06-26T04:09:14;100930.25;;;21.16;100.00
20043;BME280;10182;52.896;6.496;2023-06-26T04:14:17;100938.50;;;21.24;100.00
20043;BME280;10182;52.896;6.496;2023-06-26T04:19:18;100952.25;;;21.21;100.00
20043;BME280;10182;52.896;6.496;2023-06-26T04:24:20;100954.94;;;21.21;100.00
20043;BME280;10182;52.896;6.496;2023-06-26T04:29:23;100974.13;;;21.06;100.00
20043;BME280;10182;52.896;6.496;2023-06-26T04:34:26;100981.78;;;21.01;100.00
20043;BME280;10182;52.896;6.496;2023-06-26T04:39:28;100982.44;;;20.93;100.00
20043;BME280;10182;52.896;6.496;2023-06-26T04:44:31;100988.28;;;20.99;100.00
20043;BME280;10182;52.896;6.496;2023-06-26T04:49:33;101002.28;;;20.92;100.00
20043;BME280;10182;52.896;6.496;2023-06-26T04:54:35;101003.66;;;20.87;100.00
20043;BME280;10182;52.896;6.496;2023-06-26T04:59:38;101014.84;;;20.82;100.00
20043;BME280;10182;52.896;6.496;2023-06-26T05:04:39;101022.84;;;20.72;100.00
20043;BME280;10182;52.896;6.496;2023-06-26T05:09:42;101013.59;;;20.54;100.00
20043;BME280;10182;52.896;6.496;2023-06-26T05:14:45;101013.75;;;20.52;100.00
20043;BME280;10182;52.896;6.496;2023-06-26T05:19:47;101021.53;;;20.55;100.00
20043;BME280;10182;52.896;6.496;2023-06-26T05:24:50;101049.69;;;20.51;100.00
20043;BME280;10182;52.896;6.496;2023-06-26T05:29:55;101041.72;;;20.28;100.00
20043;BME280;10182;52.896;6.496;2023-06-26T05:34:57;101057.38;;;20.23;100.00
20043;BME280;10182;52.896;6.496;2023-06-26T05:40:00;101061.03;;;20.22;100.00
20043;BME280;10182;52.896;6.496;2023-06-26T05:45:05;101064.72;;;20.21;100.00
20043;BME280;10182;52.896;6.496;2023-06-26T05:50:08;101064.56;;;20.23;100.00
20043;BME280;10182;52.896;6.496;2023-06-26T05:55:11;101076.22;;;20.23;100.00
20043;BME280;10182;52.896;6.496;2023-06-26T06:00:15;101082.47;;;20.12;100.00
20043;BME280;10182;52.896;6.496;2023-06-26T06:05:17;101090.38;;;20.25;100.00
20043;BME280;10182;52.896;6.496;2023-06-26T06:10:18;101106.28;;;20.28;100.00
20043;BME280;10182;52.896;6.496;2023-06-26T06:15:21;101114.09;;;20.32;100.00
20043;BME280;10182;52.896;6.496;2023-06-26T06:20:24;101125.09;;;20.28;100.00
20043;BME280;10182;52.896;6.496;2023-06-26T06:25:26;101126.69;;;20.20;100.00
20043;BME280;10182;52.896;6.496;2023-06-26T06:30:29;101136.31;;;20.34;100.00
20043;BME280;10182;52.896;6.496;2023-06-26T06:35:31;101151.44;;;20.46;100.00
20043;BME280;10182;52.896;6.496;2023-06-26T06:40:32;101154.63;;;20.51;100.00
20043;BME280;10182;52.896;6.496;2023-06-26T06:45:35;101168.66;;;20.66;100.00
20043;BME280;10182;52.896;6.496;2023-06-26T06:50:38;101180.31;;;20.44;100.00
20043;BME280;10182;52.896;6.496;2023-06-26T06:55:39;101186.41;;;20.57;100.00
20043;BME280;10182;52.896;6.496;2023-06-26T07:00:43;101206.09;;;20.69;100.00
20043;BME280;10182;52.896;6.496;2023-06-26T07:05:44;101203.25;;;20.71;100.00
20043;BME280;10182;52.896;6.496;2023-06-26T07:10:46;101206.69;;;20.73;100.00
20043;BME280;10182;52.896;6.496;2023-06-26T07:15:49;101220.78;;;20.76;100.00
20043;BME280;10182;52.896;6.496;2023-06-26T07:20:51;101224.78;;;20.82;100.00
20043;BME280;10182;52.896;6.496;2023-06-26T07:25:52;101230.28;;;21.13;100.00
20043;BME280;10182;52.896;6.496;2023-06-26T07:30:55;101227.38;;;21.37;100.00
20043;BME280;10182;52.896;6.496;2023-06-26T07:35:57;101239.41;;;21.33;100.00
20043;BME280;10182;52.896;6.496;2023-06-26T07:40:59;101243.19;;;21.30;100.00
20043;BME280;10182;52.896;6.496;2023-06-26T07:46:02;101251.00;;;21.34;100.00
20043;BME280;10182;52.896;6.496;2023-06-26T07:51:03;101252.94;;;21.43;100.00
20043;BME280;10182;52.896;6.496;2023-06-26T07:56:05;101259.91;;;21.45;100.00
20043;BME280;10182;52.896;6.496;2023-06-26T08:01:11;101274.16;;;21.69;100.00
20043;BME280;10182;52.896;6.496;2023-06-26T08:06:13;101274.94;;;21.59;100.00
20043;BME280;10182;52.896;6.496;2023-06-26T08:11:15;101270.81;;;21.23;100.00
20043;BME280;10182;52.896;6.496;2023-06-26T08:16:18;101281.44;;;21.24;100.00
20043;BME280;10182;52.896;6.496;2023-06-26T08:21:19;101284.25;;;21.55;100.00
20043;BME280;10182;52.896;6.496;2023-06-26T08:26:21;101290.59;;;21.87;100.00
20043;BME280;10182;52.896;6.496;2023-06-26T08:31:24;101304.06;;;22.08;100.00
20043;BME280;10182;52.896;6.496;2023-06-26T08:36:26;101307.63;;;21.87;100.00
20043;BME280;10182;52.896;6.496;2023-06-26T08:41:27;101314.25;;;22.04;100.00
20043;BME280;10182;52.896;6.496;2023-06-26T08:46:31;101324.75;;;22.28;100.00
20043;BME280;10182;52.896;6.496;2023-06-26T08:51:33;101335.63;;;22.38;100.00
20043;BME280;10182;52.896;6.496;2023-06-26T08:56:42;101327.13;;;22.01;100.00
20043;BME280;10182;52.896;6.496;2023-06-26T09:01:47;101333.91;;;21.95;100.00
20043;BME280;10182;52.896;6.496;2023-06-26T09:06:49;101339.31;;;21.74;100.00
20043;BME280;10182;52.896;6.496;2023-06-26T09:11:51;101348.41;;;21.29;100.00
20043;BME280;10182;52.896;6.496;2023-06-26T09:16:54;101348.47;;;21.39;100.00
20043;BME280;10182;52.896;6.496;2023-06-26T09:21:55;101348.13;;;21.76;100.00
20043;BME280;10182;52.896;6.496;2023-06-26T09:26:57;101377.59;;;21.01;100.00
20043;BME280;10182;52.896;6.496;2023-06-26T09:32:00;101366.31;;;21.51;100.00
20043;BME280;10182;52.896;6.496;2023-06-26T09:37:03;101368.91;;;22.27;100.00
20043;BME280;10182;52.896;6.496;2023-06-26T09:42:05;101371.38;;;22.09;100.00
20043;BME280;10182;52.896;6.496;2023-06-26T09:47:09;101378.59;;;22.09;100.00
20043;BME280;10182;52.896;6.496;2023-06-26T09:52:14;101381.03;;;22.12;100.00
20043;BME280;10182;52.896;6.496;2023-06-26T09:57:17;101388.84;;;22.15;100.00
20043;BME280;10182;52.896;6.496;2023-06-26T10:02:21;101395.69;;;22.61;100.00
20043;BME280;10182;52.896;6.496;2023-06-26T10:07:23;101382.53;;;22.78;100.00
20043;BME280;10182;52.896;6.496;2023-06-26T10:12:28;101389.94;;;22.76;100.00
20043;BME280;10182;52.896;6.496;2023-06-26T10:17:34;101388.59;;;22.18;100.00
20043;BME280;10182;52.896;6.496;2023-06-26T10:22:38;101400.44;;;21.73;100.00
20043;BME280;10182;52.896;6.496;2023-06-26T10:27:44;101407.41;;;21.43;100.00
20043;BME280;10182;52.896;6.496;2023-06-26T10:32:48;101406.09;;;22.24;100.00
20043;BME280;10182;52.896;6.496;2023-06-26T10:37:50;101410.97;;;22.51;100.00
20043;BME280;10182;52.896;6.496;2023-06-26T10:43:05;101418.41;;;22.17;100.00
20043;BME280;10182;52.896;6.496;2023-06-26T10:48:08;101431.56;;;22.52;100.00
20043;BME280;10182;52.896;6.496;2023-06-26T10:53:12;101434.69;;;22.78;100.00
20043;BME280;10182;52.896;6.496;2023-06-26T10:58:40;101443.22;;;23.05;100.00
20043;BME280;10182;52.896;6.496;2023-06-26T11:03:46;101467.09;;;23.09;100.00
20043;BME280;10182;52.896;6.496;2023-06-26T11:08:51;101456.63;;;22.54;100.00
20043;BME280;10182;52.896;6.496;2023-06-26T11:13:54;101454.94;;;22.63;100.00
20043;BME280;10182;52.896;6.496;2023-06-26T11:18:59;101457.22;;;22.89;100.00
20043;BME280;10182;52.896;6.496;2023-06-26T11:24:02;101461.31;;;22.62;95.20
20043;BME280;10182;52.896;6.496;2023-06-26T11:29:05;101474.16;;;21.95;100.00
20043;BME280;10182;52.896;6.496;2023-06-26T11:34:09;101470.53;;;21.73;100.00
20043;BME280;10182;52.896;6.496;2023-06-26T11:39:12;101466.06;;;21.95;100.00
20043;BME280;10182;52.896;6.496;2023-06-26T11:44:14;101475.31;;;22.46;100.00
20043;BME280;10182;52.896;6.496;2023-06-26T11:49:22;101477.91;;;22.36;96.30
20043;BME280;10182;52.896;6.496;2023-06-26T11:54:27;101496.91;;;22.13;93.37
20043;BME280;10182;52.896;6.496;2023-06-26T11:59:34;101514.31;;;22.09;100.00
20043;BME280;10182;52.896;6.496;2023-06-26T12:04:40;101516.13;;;22.09;100.00
20043;BME280;10182;52.896;6.496;2023-06-26T12:09:43;101512.81;;;21.73;100.00
20043;BME280;10182;52.896;6.496;2023-06-26T12:14:46;101513.97;;;21.59;100.00
20043;BME280;10182;52.896;6.496;2023-06-26T12:19:49;101541.72;;;21.82;98.94
20043;BME280;10182;52.896;6.496;2023-06-26T12:24:51;101529.78;;;22.40;100.00
20043;BME280;10182;52.896;6.496;2023-06-26T12:29:54;101548.78;;;22.71;95.45
20043;BME280;10182;52.896;6.496;2023-06-26T12:34:57;101557.53;;;22.84;95.14
20043;BME280;10182;52.896;6.496;2023-06-26T12:39:59;101564.44;;;22.56;94.45
20043;BME280;10182;52.896;6.496;2023-06-26T12:45:10;101555.09;;;22.60;94.65
20043;BME280;10182;52.896;6.496;2023-06-26T12:50:13;101548.22;;;22.23;94.06
20043;BME280;10182;52.896;6.496;2023-06-26T12:55:17;101559.09;;;22.33;86.72
20043;BME280;10182;52.896;6.496;2023-06-26T13:00:19;101553.44;;;22.47;97.34
20043;BME280;10182;52.896;6.496;2023-06-26T13:05:22;101551.63;;;21.93;96.27
20043;BME280;10182;52.896;6.496;2023-06-26T13:10:24;101553.91;;;22.09;100.00
20043;BME280;10182;52.896;6.496;2023-06-26T13:15:27;101574.22;;;21.58;100.00
20043;BME280;10182;52.896;6.496;2023-06-26T13:20:31;101568.41;;;22.08;100.00
20043;BME280;10182;52.896;6.496;2023-06-26T13:25:33;101580.34;;;21.71;100.00
20043;BME280;10182;52.896;6.496;2023-06-26T13:30:35;101588.06;;;21.76;100.00
20043;BME280;10182;52.896;6.496;2023-06-26T13:35:38;101588.16;;;21.97;100.00
20043;BME280;10182;52.896;6.496;2023-06-26T13:40:39;101584.28;;;22.22;100.00
20043;BME280;10182;52.896;6.496;2023-06-26T13:45:41;101588.28;;;21.95;100.00
20043;BME280;10182;52.896;6.496;2023-06-26T13:50:44;101588.66;;;21.91;100.00
20043;BME280;10182;52.896;6.496;2023-06-26T13:55:46;101595.50;;;22.06;100.00
20043;BME280;10182;52.896;6.496;2023-06-26T14:00:48;101597.19;;;22.07;100.00
20043;BME280;10182;52.896;6.496;2023-06-26T14:05:51;101615.03;;;21.53;100.00
20043;BME280;10182;52.896;6.496;2023-06-26T14:10:53;101608.59;;;21.43;100.00
20043;BME280;10182;52.896;6.496;2023-06-26T14:15:54;101604.59;;;21.83;100.00
20043;BME280;10182;52.896;6.496;2023-06-26T14:20:58;101603.28;;;21.54;100.00
20043;BME280;10182;52.896;6.496;2023-06-26T14:25:59;101603.13;;;21.90;100.00
20043;BME280;10182;52.896;6.496;2023-06-26T14:31:01;101609.50;;;21.89;100.00
20043;BME280;10182;52.896;6.496;2023-06-26T14:36:04;101615.47;;;21.24;100.00
20043;BME280;10182;52.896;6.496;2023-06-26T14:41:06;101620.97;;;21.23;100.00
20043;BME280;10182;52.896;6.496;2023-06-26T14:46:07;101625.94;;;21.63;100.00
20043;BME280;10182;52.896;6.496;2023-06-26T14:51:11;101632.50;;;22.04;100.00
20043;BME280;10182;52.896;6.496;2023-06-26T14:56:12;101641.13;;;21.64;100.00
20043;BME280;10182;52.896;6.496;2023-06-26T15:01:14;101643.38;;;21.12;100.00
20043;BME280;10182;52.896;6.496;2023-06-26T15:06:18;101638.97;;;20.75;100.00
20043;BME280;10182;52.896;6.496;2023-06-26T15:11:19;101625.75;;;21.19;100.00
20043;BME280;10182;52.896;6.496;2023-06-26T15:16:21;101641.19;;;20.57;100.00
20043;BME280;10182;52.896;6.496;2023-06-26T15:21:24;101648.09;;;20.24;100.00
20043;BME280;10182;52.896;6.496;2023-06-26T15:26:26;101651.75;;;20.23;100.00
20043;BME280;10182;52.896;6.496;2023-06-26T15:31:28;101656.31;;;20.10;100.00
20043;BME280;10182;52.896;6.496;2023-06-26T15:36:32;101656.97;;;20.01;100.00
20043;BME280;10182;52.896;6.496;2023-06-26T15:41:33;101661.72;;;19.97;100.00
20043;BME280;10182;52.896;6.496;2023-06-26T15:46:37;101662.38;;;20.86;100.00
20043;BME280;10182;52.896;6.496;2023-06-26T15:51:40;101659.53;;;20.76;100.00
20043;BME280;10182;52.896;6.496;2023-06-26T15:56:42;101652.41;;;20.75;100.00
20043;BME280;10182;52.896;6.496;2023-06-26T16:01:44;101635.00;;;21.04;100.00
20043;BME280;10182;52.896;6.496;2023-06-26T16:06:47;101652.56;;;21.32;100.00
20043;BME280;10182;52.896;6.496;2023-06-26T16:11:49;101642.53;;;21.34;96.97
20043;BME280;10182;52.896;6.496;2023-06-26T16:16:50;101657.63;;;21.37;94.07
20043;BME280;10182;52.896;6.496;2023-06-26T16:21:53;101668.75;;;20.96;97.51
20043;BME280;10182;52.896;6.496;2023-06-26T16:26:55;101664.13;;;20.99;98.37
20043;BME280;10182;52.896;6.496;2023-06-26T16:31:57;101657.03;;;21.09;89.43
20043;BME280;10182;52.896;6.496;2023-06-26T16:37:02;101655.72;;;21.61;75.69
20043;BME280;10182;52.896;6.496;2023-06-26T16:42:07;101656.28;;;22.98;66.70
20043;BME280;10182;52.896;6.496;2023-06-26T16:47:09;101655.47;;;23.71;60.65
20043;BME280;10182;52.896;6.496;2023-06-26T16:52:13;101669.59;;;24.25;55.87
20043;BME280;10182;52.896;6.496;2023-06-26T16:57:14;101651.69;;;25.41;54.57
20043;BME280;10182;52.896;6.496;2023-06-26T17:02:16;101653.28;;;25.14;53.46
20043;BME280;10182;52.896;6.496;2023-06-26T17:07:19;101667.28;;;22.30;59.67
20043;BME280;10182;52.896;6.496;2023-06-26T17:12:21;101665.63;;;21.61;68.84
20043;BME280;10182;52.896;6.496;2023-06-26T17:17:23;101669.91;;;21.05;71.35
20043;BME280;10182;52.896;6.496;2023-06-26T17:22:26;101678.81;;;20.33;82.28
20043;BME280;10182;52.896;6.496;2023-06-26T17:27:27;101677.53;;;19.89;90.30
20043;BME280;10182;52.896;6.496;2023-06-26T17:32:29;101675.81;;;19.88;90.81
20043;BME280;10182;52.896;6.496;2023-06-26T17:37:32;101688.06;;;19.92;98.00
20043;BME280;10182;52.896;6.496;2023-06-26T17:42:34;101693.84;;;19.73;98.06
20043;BME280;10182;52.896;6.496;2023-06-26T17:47:40;101691.25;;;19.58;98.04
20043;BME280;10182;52.896;6.496;2023-06-26T17:52:43;101697.19;;;19.64;100.00
20043;BME280;10182;52.896;6.496;2023-06-26T17:57:45;101692.66;;;19.38;100.00
20043;BME280;10182;52.896;6.496;2023-06-26T18:02:47;101701.69;;;19.37;100.00
20043;BME280;10182;52.896;6.496;2023-06-26T18:07:51;101712.28;;;19.13;100.00
20043;BME280;10182;52.896;6.496;2023-06-26T18:12:53;101714.69;;;19.31;100.00
20043;BME280;10182;52.896;6.496;2023-06-26T18:17:56;101715.06;;;19.11;100.00
20043;BME280;10182;52.896;6.496;2023-06-26T18:22:59;101728.16;;;19.03;100.00
20043;BME280;10182;52.896;6.496;2023-06-26T18:28:01;101735.88;;;19.08;97.35
20043;BME280;10182;52.896;6.496;2023-06-26T18:33:02;101735.00;;;18.94;93.28
20043;BME280;10182;52.896;6.496;2023-06-26T18:38:06;101733.00;;;18.84;97.30
20043;BME280;10182;52.896;6.496;2023-06-26T18:43:11;101732.22;;;18.82;100.00
20043;BME280;10182;52.896;6.496;2023-06-26T18:48:13;101737.22;;;18.88;100.00
20043;BME280;10182;52.896;6.496;2023-06-26T18:53:16;101741.69;;;18.87;100.00
20043;BME280;10182;52.896;6.496;2023-06-26T18:58:18;101738.59;;;18.66;100.00
20043;BME280;10182;52.896;6.496;2023-06-26T19:03:19;101747.84;;;18.48;100.00
20043;BME280;10182;52.896;6.496;2023-06-26T19:08:22;101749.78;;;18.31;100.00
20043;BME280;10182;52.896;6.496;2023-06-26T19:13:24;101750.75;;;18.16;100.00
20043;BME280;10182;52.896;6.496;2023-06-26T19:18:26;101747.50;;;18.10;100.00
20043;BME280;10182;52.896;6.496;2023-06-26T19:23:29;101758.50;;;18.06;100.00
20043;BME280;10182;52.896;6.496;2023-06-26T19:28:34;101763.50;;;17.98;100.00
20043;BME280;10182;52.896;6.496;2023-06-26T19:33:35;101765.44;;;17.80;100.00
20043;BME280;10182;52.896;6.496;2023-06-26T19:38:38;101769.19;;;17.77;100.00
20043;BME280;10182;52.896;6.496;2023-06-26T19:43:40;101775.09;;;17.68;100.00
20043;BME280;10182;52.896;6.496;2023-06-26T19:48:42;101775.44;;;17.62;100.00
20043;BME280;10182;52.896;6.496;2023-06-26T19:53:45;101776.19;;;17.49;100.00
20043;BME280;10182;52.896;6.496;2023-06-26T19:58:47;101781.66;;;17.32;100.00
20043;BME280;10182;52.896;6.496;2023-06-26T20:03:49;101774.81;;;17.12;100.00
20043;BME280;10182;52.896;6.496;2023-06-26T20:08:52;101780.88;;;16.99;100.00
20043;BME280;10182;52.896;6.496;2023-06-26T20:13:55;101787.34;;;16.79;100.00
20043;BME280;10182;52.896;6.496;2023-06-26T20:18:57;101795.88;;;16.70;100.00
20043;BME280;10182;52.896;6.496;2023-06-26T20:24:00;101793.13;;;16.55;100.00
20043;BME280;10182;52.896;6.496;2023-06-26T20:29:01;101801.72;;;16.45;100.00
20043;BME280;10182;52.896;6.496;2023-06-26T20:34:03;101804.72;;;16.38;100.00
20043;BME280;10182;52.896;6.496;2023-06-26T20:39:06;101812.28;;;16.30;100.00
20043;BME280;10182;52.896;6.496;2023-06-26T20:44:09;101799.88;;;16.29;100.00
20043;BME280;10182;52.896;6.496;2023-06-26T20:49:11;101810.53;;;16.13;100.00
20043;BME280;10182;52.896;6.496;2023-06-26T20:54:14;101809.91;;;16.08;100.00
20043;BME280;10182;52.896;6.496;2023-06-26T20:59:16;101810.66;;;15.94;100.00
20043;BME280;10182;52.896;6.496;2023-06-26T21:04:18;101811.91;;;15.87;100.00
20043;BME280;10182;52.896;6.496;2023-06-26T21:09:21;101806.94;;;15.79;100.00
20043;BME280;10182;52.896;6.496;2023-06-26T21:14:22;101806.94;;;15.79;100.00
20043;BME280;10182;52.896;6.496;2023-06-26T21:19:24;101805.28;;;15.77;100.00
20043;BME280;10182;52.896;6.496;2023-06-26T21:24:27;101812.09;;;15.65;100.00
20043;BME280;10182;52.896;6.496;2023-06-26T21:29:29;101803.53;;;15.58;100.00
20043;BME280;10182;52.896;6.496;2023-06-26T21:34:31;101806.84;;;15.46;100.00
20043;BME280;10182;52.896;6.496;2023-06-26T21:39:34;101816.09;;;15.38;100.00
20043;BME280;10182;52.896;6.496;2023-06-26T21:44:35;101811.00;;;15.34;100.00
20043;BME280;10182;52.896;6.496;2023-06-26T21:49:38;101806.03;;;15.26;100.00
20043;BME280;10182;52.896;6.496;2023-06-26T21:54:41;101809.16;;;15.17;100.00
20043;BME280;10182;52.896;6.496;2023-06-26T21:59:42;101802.06;;;15.16;100.00
20043;BME280;10182;52.896;6.496;2023-06-26T22:04:44;101805.06;;;15.10;100.00
20043;BME280;10182;52.896;6.496;2023-06-26T22:09:47;101794.41;;;15.10;100.00
20043;BME280;10182;52.896;6.496;2023-06-26T22:14:49;101800.16;;;15.00;100.00
20043;BME280;10182;52.896;6.496;2023-06-26T22:19:50;101799.31;;;15.00;100.00
20043;BME280;10182;52.896;6.496;2023-06-26T22:24:53;101796.94;;;14.94;100.00
20043;BME280;10182;52.896;6.496;2023-06-26T22:29:55;101801.84;;;14.84;100.00
20043;BME280;10182;52.896;6.496;2023-06-26T22:34:57;101800.19;;;14.81;100.00
20043;BME280;10182;52.896;6.496;2023-06-26T22:40:00;101797.34;;;14.67;100.00
20043;BME280;10182;52.896;6.496;2023-06-26T22:45:08;101793.78;;;14.66;100.00
20043;BME280;10182;52.896;6.496;2023-06-26T22:50:10;101793.25;;;14.58;100.00
20043;BME280;10182;52.896;6.496;2023-06-26T22:55:13;101789.06;;;14.52;100.00
20043;BME280;10182;52.896;6.496;2023-06-26T23:00:15;101787.56;;;14.47;100.00
20043;BME280;10182;52.896;6.496;2023-06-26T23:05:18;101784.16;;;14.43;100.00
20043;BME280;10182;52.896;6.496;2023-06-26T23:10:21;101784.53;;;14.35;100.00
20043;BME280;10182;52.896;6.496;2023-06-26T23:15:23;101782.94;;;14.31;100.00
20043;BME280;10182;52.896;6.496;2023-06-26T23:20:25;101783.16;;;14.27;100.00
20043;BME280;10182;52.896;6.496;2023-06-26T23:25:28;101775.44;;;14.20;100.00
20043;BME280;10182;52.896;6.496;2023-06-26T23:30:34;101773.78;;;14.18;100.00
20043;BME280;10182;52.896;6.496;2023-06-26T23:35:36;101774.94;;;14.12;100.00
20043;BME280;10182;52.896;6.496;2023-06-26T23:40:41;101784.06;;;14.07;100.00
20043;BME280;10182;52.896;6.496;2023-06-26T23:45:43;101781.41;;;14.07;100.00
20043;BME280;10182;52.896;6.496;2023-06-26T23:50:46;101789.50;;;14.03;100.00
20043;BME280;10182;52.896;6.496;2023-06-26T23:55:49;101790.41;;;14.04;100.00
